Time;durP1;ratioP1;P1;durP2;ratioP2;P2;SDS_P1;SDS_P2;PMS_P1;PMS_P2;Temp;Humidity;BMP_temperature;BMP_pressure;BME280_temperature;BME280_humidity;BME280_pressure;Samples;Min_cycle;Max_cycle;Signal;HPM_P1;HPM_P2
2022/07/22 00:02:19;;;;;;;8.35;4.20;;;;;;;24.85;54.46;99992.75;5025188;28;20063;-28
2022/07/22 00:04:44;;;;;;;10.68;4.05;;;;;;;24.97;54.43;99996.81;5027291;28;20037;-27
2022/07/22 00:07:10;;;;;;;9.15;4.63;;;;;;;24.79;54.86;99998.66;5027066;28;20036;-33
2022/07/22 00:09:35;;;;;;;6.90;4.00;;;;;;;24.87;54.60;99995.16;5026953;28;20033;-29
2022/07/22 00:12:01;;;;;;;6.75;4.10;;;;;;;24.70;55.16;100006.78;5026880;28;20113;-28
2022/07/22 00:14:26;;;;;;;9.45;4.50;;;;;;;24.63;55.62;100001.81;5026812;28;20095;-30
2022/07/22 00:16:52;;;;;;;9.52;4.75;;;;;;;24.80;55.32;100005.72;5026738;28;20049;-28
2022/07/22 00:19:17;;;;;;;8.13;3.97;;;;;;;24.53;55.59;100001.28;5026959;28;20029;-38
2022/07/22 00:21:43;;;;;;;8.88;4.20;;;;;;;24.68;55.97;100011.75;5026598;28;20401;-28
2022/07/22 00:24:08;;;;;;;8.35;4.60;;;;;;;24.94;54.44;100008.34;5026904;28;20029;-31
2022/07/22 00:26:34;;;;;;;9.23;4.05;;;;;;;24.64;55.65;100013.50;5025361;28;20032;-32
2022/07/22 00:28:59;;;;;;;6.95;4.53;;;;;;;24.42;56.64;100028.78;5026528;28;20052;-31
2022/07/22 00:31:25;;;;;;;10.23;4.07;;;;;;;24.47;56.06;100036.00;5026471;28;20055;-29
2022/07/22 00:33:50;;;;;;;8.48;5.00;;;;;;;24.58;55.39;100020.22;5030256;28;20033;-31
2022/07/22 00:36:16;;;;;;;6.53;4.15;;;;;;;24.32;56.58;100034.50;5030762;28;20413;-31
2022/07/22 00:38:41;;;;;;;8.80;4.70;;;;;;;23.81;58.23;100031.09;5030760;28;20493;-30
2022/07/22 00:41:09;;;;;;;8.02;4.43;;;;;;;24.13;57.56;100031.16;5029166;28;20679;-30
2022/07/22 00:43:55;;;;;;;7.80;4.72;;;;;;;24.27;57.16;100050.97;5012470;28;20025;-32
2022/07/22 00:46:21;;;;;;;10.15;4.70;;;;;;;24.34;56.71;100037.72;5029191;28;20477;-27
2022/07/22 00:48:46;;;;;;;7.57;4.65;;;;;;;24.52;55.96;100048.72;5030337;28;20041;-28
2022/07/22 00:51:12;;;;;;;8.32;4.78;;;;;;;24.13;57.11;100048.31;5030466;28;20138;-30
2022/07/22 00:53:37;;;;;;;8.43;4.68;;;;;;;24.06;57.02;100026.16;5030458;28;20174;-28
2022/07/22 00:56:03;;;;;;;8.13;5.05;;;;;;;24.11;57.05;100033.38;5030122;28;20643;-30
2022/07/22 00:58:29;;;;;;;7.75;4.45;;;;;;;24.14;57.47;100055.38;5028640;28;20037;-28
2022/07/22 01:00:55;;;;;;;9.90;4.70;;;;;;;24.29;56.67;100056.91;5029939;28;20025;-27
2022/07/22 01:03:20;;;;;;;10.57;5.18;;;;;;;24.12;56.74;100052.16;5030086;28;20481;-31
2022/07/22 01:05:46;;;;;;;7.35;4.63;;;;;;;24.30;56.30;100065.91;5030123;28;20044;-28
2022/07/22 01:08:11;;;;;;;10.38;4.95;;;;;;;24.27;56.18;100042.78;5030099;28;20025;-32
2022/07/22 01:10:37;;;;;;;8.82;4.35;;;;;;;24.31;56.11;100059.31;5030325;28;20063;-28
2022/07/22 01:13:02;;;;;;;6.32;4.30;;;;;;;24.18;56.19;100055.56;5028417;28;20063;-29
2022/07/22 01:15:28;;;;;;;7.60;4.80;;;;;;;24.34;56.19;100064.97;5029641;28;20057;-28
2022/07/22 01:17:53;;;;;;;8.73;4.93;;;;;;;24.18;56.52;100050.91;5030289;28;20033;-27
2022/07/22 01:20:19;;;;;;;8.32;4.45;;;;;;;24.28;56.00;100049.88;5030022;28;20029;-28
2022/07/22 01:22:44;;;;;;;8.00;4.45;;;;;;;24.49;55.13;100043.88;5029804;28;20026;-30
2022/07/22 01:25:11;;;;;;;6.95;4.53;;;;;;;24.16;56.22;100063.25;5029882;28;20037;-28
2022/07/22 01:27:37;;;;;;;7.50;4.60;;;;;;;24.29;55.47;100050.66;5029300;28;20111;-31
2022/07/22 01:30:04;;;;;;;7.68;4.38;;;;;;;24.00;56.67;100058.16;5029898;28;20036;-29
2022/07/22 01:32:30;;;;;;;9.52;5.10;;;;;;;23.71;57.73;100049.56;5028146;28;20112;-30
2022/07/22 01:34:55;;;;;;;8.73;4.90;;;;;;;24.08;56.05;100037.53;5029732;28;20156;-29
2022/07/22 01:37:21;;;;;;;10.32;5.00;;;;;;;24.10;56.05;100045.41;5029497;28;20441;-27
2022/07/22 01:39:48;;;;;;;7.70;4.60;;;;;;;24.35;55.28;100039.31;5028155;28;20563;-28
2022/07/22 01:42:13;;;;;;;8.73;4.50;;;;;;;24.49;54.66;100039.22;5027965;28;20025;-31
2022/07/22 01:44:39;;;;;;;8.27;4.85;;;;;;;24.30;55.32;100030.47;5029167;28;20052;-28
2022/07/22 01:47:04;;;;;;;5.70;4.32;;;;;;;24.24;55.91;100038.78;5028135;28;20021;-32
2022/07/22 01:49:30;;;;;;;10.05;4.80;;;;;;;24.29;55.85;100046.00;5029144;28;20856;-29
2022/07/22 01:51:55;;;;;;;8.10;4.32;;;;;;;24.27;55.65;100042.78;5029427;28;20397;-27
2022/07/22 01:54:21;;;;;;;7.63;4.82;;;;;;;23.84;56.92;100029.66;5027683;28;20029;-29
2022/07/22 01:56:46;;;;;;;7.57;4.88;;;;;;;23.39;57.91;100051.34;5011062;28;20028;-31
2022/07/22 01:59:12;;;;;;;8.88;4.70;;;;;;;22.93;58.99;100049.53;5029026;28;20031;-29
2022/07/22 02:01:37;;;;;;;10.55;5.55;;;;;;;22.93;59.90;100052.25;5028950;28;20083;-31
2022/07/22 02:04:03;;;;;;;8.00;4.68;;;;;;;23.61;57.83;100045.94;5029162;28;20039;-28
2022/07/22 02:06:30;;;;;;;9.48;4.82;;;;;;;23.48;58.10;100027.75;5029156;28;20057;-32
2022/07/22 02:08:56;;;;;;;9.30;5.10;;;;;;;23.82;57.07;100042.78;5029017;28;20056;-28
2022/07/22 02:11:21;;;;;;;9.80;4.80;;;;;;;23.89;56.27;100023.31;5028678;28;20481;-30
2022/07/22 02:13:46;;;;;;;12.65;5.05;;;;;;;24.14;56.04;100038.22;5029107;28;20029;-27
2022/07/22 02:16:12;;;;;;;7.20;4.63;;;;;;;23.93;56.18;100029.75;5028572;28;20077;-32
2022/07/22 02:18:37;;;;;;;7.05;4.65;;;;;;;23.78;56.54;100041.78;5010781;28;20080;-31
2022/07/22 02:21:03;;;;;;;7.80;5.00;;;;;;;23.08;58.37;100013.91;5028966;28;20421;-27
2022/07/22 02:23:29;;;;;;;10.95;4.53;;;;;;;23.37;58.01;100037.22;5026873;28;20035;-30
2022/07/22 02:25:54;;;;;;;12.63;4.90;;;;;;;23.54;58.21;100042.84;5028407;28;20076;-29
2022/07/22 02:28:20;;;;;;;8.27;4.85;;;;;;;23.32;57.49;100024.56;5026859;28;20120;-28
2022/07/22 02:30:45;;;;;;;8.40;4.85;;;;;;;23.81;56.61;100052.09;5028714;28;20038;-28
2022/07/22 02:33:11;;;;;;;8.63;4.78;;;;;;;23.47;56.84;100047.91;5026987;28;20068;-28
2022/07/22 02:35:37;;;;;;;10.30;5.30;;;;;;;23.05;58.47;100047.94;5028687;28;20029;-28
2022/07/22 02:38:03;;;;;;;9.88;5.20;;;;;;;23.67;57.28;100054.81;5026958;28;20033;-28
2022/07/22 02:40:28;;;;;;;10.40;5.32;;;;;;;23.50;57.11;100051.91;5028556;28;20061;-31
2022/07/22 02:42:54;;;;;;;7.72;5.07;;;;;;;23.40;57.94;100045.59;5028197;28;20093;-28
2022/07/22 02:45:19;;;;;;;10.98;5.10;;;;;;;23.71;56.35;100046.84;5026788;28;20038;-28
2022/07/22 02:47:50;;;;;;;9.20;5.18;;;;;;;23.44;57.72;100045.81;5028340;28;20095;-28
2022/07/22 02:50:16;;;;;;;8.80;5.47;;;;;;;23.39;56.94;100043.97;5026918;28;20382;-29
2022/07/22 02:52:41;;;;;;;9.20;5.40;;;;;;;23.00;58.39;100039.06;5028147;28;20036;-30
2022/07/22 02:55:08;;;;;;;8.95;5.45;;;;;;;22.69;59.26;100034.22;5027261;28;20032;-28
2022/07/22 02:57:33;;;;;;;8.38;5.18;;;;;;;22.80;59.31;100041.06;5027647;28;20022;-28
2022/07/22 02:59:59;;;;;;;11.05;5.32;;;;;;;22.89;59.22;100024.06;5028084;28;20044;-27
2022/07/22 03:02:24;;;;;;;10.85;5.47;;;;;;;22.73;59.65;100018.91;5027874;28;20029;-30
2022/07/22 03:04:50;;;;;;;8.45;5.80;;;;;;;22.23;61.25;100040.41;5027983;28;20409;-28
2022/07/22 03:07:15;;;;;;;10.60;5.68;;;;;;;22.61;60.73;100024.03;5027835;28;20026;-27
2022/07/22 03:09:40;;;;;;;10.50;5.20;;;;;;;23.02;58.94;100031.44;5027482;28;20545;-29
2022/07/22 03:12:06;;;;;;;11.80;5.75;;;;;;;23.07;58.73;100039.50;5026005;28;20708;-29
2022/07/22 03:14:31;;;;;;;10.30;5.47;;;;;;;22.78;59.45;100021.53;5026333;28;20499;-32
2022/07/22 03:16:57;;;;;;;10.55;5.70;;;;;;;22.94;58.69;100043.78;5026088;28;20042;-29
2022/07/22 03:19:22;;;;;;;9.73;5.70;;;;;;;22.83;59.69;100029.59;5025182;28;20032;-27
2022/07/22 03:21:48;;;;;;;13.23;6.22;;;;;;;22.45;60.40;100015.34;5027668;28;20120;-28
2022/07/22 03:24:13;;;;;;;9.98;5.53;;;;;;;22.80;59.64;100041.06;5009758;28;20126;-31
2022/07/22 03:26:38;;;;;;;11.75;5.60;;;;;;;22.78;59.23;100024.25;5026182;28;20033;-29
2022/07/22 03:29:04;;;;;;;12.18;5.75;;;;;;;22.69;59.75;100044.28;5027132;28;20029;-30
2022/07/22 03:31:29;;;;;;;10.75;5.70;;;;;;;22.74;59.15;100042.28;5027232;28;20084;-27
2022/07/22 03:33:55;;;;;;;10.75;5.97;;;;;;;22.72;59.21;100044.50;5027244;28;20493;-28
2022/07/22 03:36:20;;;;;;;14.85;6.38;;;;;;;22.71;59.63;100040.16;5027367;28;20029;-29
2022/07/22 03:38:46;;;;;;;7.60;5.28;;;;;;;23.01;58.69;100037.97;5026181;28;20025;-28
2022/07/22 03:41:11;;;;;;;8.80;5.45;;;;;;;23.41;57.55;100040.97;5027045;28;20030;-29
2022/07/22 03:43:37;;;;;;;11.52;6.20;;;;;;;23.19;58.04;100037.06;5027216;28;20032;-28
2022/07/22 03:46:02;;;;;;;11.52;5.93;;;;;;;22.69;59.45;100038.84;5025819;28;20033;-30
2022/07/22 03:48:28;;;;;;;11.00;6.55;;;;;;;22.19;61.43;100058.41;5027100;28;20021;-30
2022/07/22 03:50:54;;;;;;;10.27;6.15;;;;;;;22.38;60.50;100036.69;5027196;28;20055;-27
2022/07/22 03:53:20;;;;;;;11.82;6.15;;;;;;;22.18;61.38;100051.38;5026902;28;20022;-27
2022/07/22 03:55:45;;;;;;;14.07;6.20;;;;;;;22.58;60.50;100060.78;5025794;28;20870;-28
2022/07/22 03:58:11;;;;;;;15.38;6.20;;;;;;;23.20;58.42;100052.28;5027391;28;20029;-28
2022/07/22 04:00:39;;;;;;;10.10;5.18;;;;;;;23.05;58.42;100039.00;5025459;28;20044;-28
2022/07/22 04:03:05;;;;;;;14.75;6.22;;;;;;;23.38;57.87;100061.44;5027120;28;20018;-27
2022/07/22 04:05:30;;;;;;;12.98;6.43;;;;;;;23.19;58.47;100063.44;5025354;28;20099;-29
2022/07/22 04:07:56;;;;;;;14.20;6.70;;;;;;;23.45;57.63;100061.81;5026987;28;20029;-29
2022/07/22 04:10:21;;;;;;;11.32;6.72;;;;;;;23.42;57.51;100045.31;5026678;28;20091;-29
2022/07/22 04:12:46;;;;;;;11.93;7.00;;;;;;;23.64;57.01;100056.25;5027024;28;20025;-28
2022/07/22 04:15:12;;;;;;;12.98;6.97;;;;;;;23.29;58.19;100067.88;5026610;28;20744;-27
2022/07/22 04:17:37;;;;;;;12.55;6.60;;;;;;;23.46;57.71;100047.09;5027020;28;20076;-31
2022/07/22 04:20:04;;;;;;;11.63;6.32;;;;;;;23.44;57.74;100043.09;5026878;28;20033;-28
2022/07/22 04:22:29;;;;;;;13.32;7.07;;;;;;;23.72;56.76;100046.53;5025230;28;20029;-29
2022/07/22 04:24:55;;;;;;;15.23;6.93;;;;;;;23.59;58.15;100061.78;5026591;28;20036;-29
2022/07/22 04:27:21;;;;;;;12.93;6.63;;;;;;;23.46;58.46;100059.91;5026698;28;20022;-27
2022/07/22 04:29:46;;;;;;;14.63;6.57;;;;;;;23.34;58.40;100035.13;5026709;28;20045;-29
2022/07/22 04:32:11;;;;;;;14.45;6.88;;;;;;;23.50;58.34;100063.63;5026603;28;20511;-34
2022/07/22 04:34:37;;;;;;;15.35;6.82;;;;;;;23.43;58.79;100072.19;5026501;28;20030;-29
2022/07/22 04:37:02;;;;;;;15.25;7.30;;;;;;;23.29;59.01;100067.88;5026680;28;20017;-29
2022/07/22 04:39:28;;;;;;;11.85;7.05;;;;;;;23.52;59.51;100066.84;5026120;28;20060;-28
2022/07/22 04:41:53;;;;;;;13.85;7.32;;;;;;;23.86;57.32;100054.69;5025328;28;20033;-29
2022/07/22 04:44:18;;;;;;;19.08;8.00;;;;;;;23.80;58.69;100051.28;5026452;28;20572;-32
2022/07/22 04:46:44;;;;;;;13.75;7.10;;;;;;;23.51;60.40;100054.34;5026979;28;20029;-28
2022/07/22 04:49:09;;;;;;;14.95;7.47;;;;;;;23.54;59.48;100064.63;5024630;28;20044;-28
2022/07/22 04:51:35;;;;;;;18.15;6.82;;;;;;;23.38;60.72;100060.63;5026013;28;20037;-30
2022/07/22 04:54:00;;;;;;;10.85;6.60;;;;;;;23.32;62.06;100078.16;5024725;28;20041;-28
2022/07/22 04:56:26;;;;;;;12.18;6.68;;;;;;;23.26;61.15;100078.25;5026377;28;20037;-28
2022/07/22 04:58:51;;;;;;;8.73;6.20;;;;;;;23.30;61.38;100064.06;5026734;28;20036;-30
2022/07/22 05:01:17;;;;;;;10.98;5.82;;;;;;;23.51;60.75;100067.94;5026059;28;20030;-27
2022/07/22 05:03:42;;;;;;;11.60;5.80;;;;;;;23.57;60.72;100064.00;5026134;28;20041;-32
2022/07/22 05:06:08;;;;;;;8.90;5.97;;;;;;;23.69;60.47;100054.50;5026141;28;20105;-29
2022/07/22 05:08:34;;;;;;;10.32;6.15;;;;;;;23.71;60.26;100074.06;5025886;28;20929;-28
2022/07/22 05:10:59;;;;;;;9.10;5.63;;;;;;;23.41;60.88;100057.28;5026385;28;20029;-29
2022/07/22 05:13:25;;;;;;;12.38;6.20;;;;;;;23.36;61.19;100049.25;5025865;28;20033;-27
2022/07/22 05:15:51;;;;;;;12.07;5.97;;;;;;;23.57;61.02;100064.00;5026041;28;20072;-28
2022/07/22 05:18:16;;;;;;;14.50;6.30;;;;;;;23.84;59.54;100062.34;5025659;28;20079;-31
2022/07/22 05:20:42;;;;;;;11.32;5.30;;;;;;;23.75;60.31;100053.28;5029769;28;20053;-27
2022/07/22 05:23:08;;;;;;;10.60;6.18;;;;;;;23.85;60.26;100067.50;5029460;28;20029;-27
2022/07/22 05:25:33;;;;;;;9.77;6.75;;;;;;;23.77;60.79;100056.53;5029494;28;20057;-30
2022/07/22 05:27:59;;;;;;;10.85;5.95;;;;;;;23.86;60.19;100055.50;5029702;28;20029;-29
2022/07/22 05:30:24;;;;;;;9.77;6.20;;;;;;;24.26;60.04;100057.53;5029604;28;20561;-29
2022/07/22 05:32:51;;;;;;;11.30;6.57;;;;;;;24.23;59.61;100060.88;5029451;28;20039;-29
2022/07/22 05:35:16;;;;;;;11.73;6.10;;;;;;;24.23;58.99;100058.16;5028070;28;20029;-29
2022/07/22 05:37:42;;;;;;;9.57;5.30;;;;;;;24.30;58.61;100052.28;5029413;28;20032;-31
2022/07/22 05:40:08;;;;;;;10.52;6.88;;;;;;;24.28;58.84;100060.75;5029447;28;20034;-28
2022/07/22 05:42:34;;;;;;;9.35;6.15;;;;;;;24.39;59.36;100066.75;5027972;28;20026;-28
2022/07/22 05:44:59;;;;;;;9.23;6.15;;;;;;;24.49;59.07;100052.06;5029427;28;20033;-36
2022/07/22 05:47:24;;;;;;;8.85;5.60;;;;;;;24.84;57.70;100067.50;5029179;28;20123;-27
2022/07/22 05:49:50;;;;;;;10.32;6.63;;;;;;;24.75;57.49;100074.84;5029363;28;20040;-30
2022/07/22 05:52:15;;;;;;;10.07;6.30;;;;;;;24.54;57.54;100058.22;5029004;28;20029;-31
2022/07/22 05:54:41;;;;;;;9.63;5.65;;;;;;;24.72;57.17;100056.38;5028266;28;20036;-27
2022/07/22 05:57:09;;;;;;;9.65;5.57;;;;;;;25.24;56.92;100070.25;5029161;28;20025;-27
2022/07/22 05:59:35;;;;;;;11.02;6.13;;;;;;;25.35;56.69;100067.22;5027603;28;20055;-28
2022/07/22 06:02:01;;;;;;;10.63;6.03;;;;;;;25.51;55.36;100068.38;5028801;28;20608;-30
2022/07/22 06:04:26;;;;;;;11.65;6.40;;;;;;;25.60;55.77;100066.47;5029055;28;20029;-31
2022/07/22 06:06:52;;;;;;;11.10;6.20;;;;;;;25.64;55.38;100066.59;5028744;28;20025;-28
2022/07/22 06:09:17;;;;;;;7.60;5.68;;;;;;;25.64;55.11;100072.91;5027385;28;20493;-30
2022/07/22 06:11:43;;;;;;;10.07;5.80;;;;;;;26.04;53.85;100078.22;5029203;28;20130;-28
2022/07/22 06:14:08;;;;;;;9.43;5.75;;;;;;;25.81;55.09;100058.44;5028917;28;20883;-28
2022/07/22 06:16:34;;;;;;;10.20;6.20;;;;;;;25.65;54.23;100057.31;5028759;28;20041;-28
2022/07/22 06:19:00;;;;;;;9.57;6.10;;;;;;;25.94;53.88;100083.22;5026832;28;20036;-28
2022/07/22 06:21:26;;;;;;;10.43;6.63;;;;;;;25.81;53.12;100076.75;5027081;28;20025;-32
2022/07/22 06:23:51;;;;;;;9.93;5.95;;;;;;;26.02;52.33;100080.47;5028508;28;20028;-28
2022/07/22 06:26:17;;;;;;;9.55;5.80;;;;;;;26.07;54.96;100082.22;5029112;28;20071;-30
2022/07/22 06:28:42;;;;;;;10.00;5.78;;;;;;;26.01;54.00;100059.75;5028560;28;20021;-28
2022/07/22 06:31:08;;;;;;;9.10;6.43;;;;;;;26.29;52.62;100062.09;5027661;28;20033;-28
2022/07/22 06:33:33;;;;;;;9.23;6.07;;;;;;;26.25;52.87;100078.38;5027089;28;20493;-31
2022/07/22 06:35:59;;;;;;;12.07;5.90;;;;;;;26.43;51.69;100076.41;5028530;28;20029;-28
2022/07/22 06:38:24;;;;;;;10.35;6.47;;;;;;;26.52;51.90;100078.31;5026953;28;20060;-28
2022/07/22 06:40:50;;;;;;;9.25;5.75;;;;;;;26.53;51.86;100077.97;5028450;28;20489;-29
2022/07/22 06:43:15;;;;;;;11.57;5.97;;;;;;;26.61;52.62;100081.88;5028502;28;20033;-29
2022/07/22 06:45:41;;;;;;;9.48;6.47;;;;;;;26.59;53.58;100073.19;5027997;28;20029;-28
2022/07/22 06:48:06;;;;;;;10.73;6.53;;;;;;;26.82;52.35;100077.28;5028462;28;20049;-34
2022/07/22 06:50:32;;;;;;;10.48;6.13;;;;;;;26.83;51.49;100073.41;5028255;28;20029;-32
2022/07/22 06:52:57;;;;;;;11.05;6.00;;;;;;;26.92;50.99;100064.38;5027983;28;20041;-30
2022/07/22 06:55:23;;;;;;;13.30;6.50;;;;;;;27.04;49.55;100068.00;5028080;28;20021;-30
2022/07/22 06:57:48;;;;;;;9.38;6.07;;;;;;;27.11;49.84;100048.31;5026411;28;20021;-30
2022/07/22 07:00:15;;;;;;;10.55;6.63;;;;;;;27.30;50.41;100041.63;5027944;28;20041;-30
2022/07/22 07:02:40;;;;;;;10.35;6.13;;;;;;;27.56;50.21;100055.94;5027858;28;20025;-35
2022/07/22 07:05:06;;;;;;;11.18;6.47;;;;;;;27.56;48.91;100050.47;5028127;28;20052;-34
2022/07/22 07:07:31;;;;;;;8.98;5.95;;;;;;;27.49;50.08;100044.75;5027756;28;20577;-31
2022/07/22 07:09:57;;;;;;;13.27;6.75;;;;;;;27.55;49.58;100043.41;5026531;28;20041;-31
2022/07/22 07:12:22;;;;;;;10.65;6.43;;;;;;;27.52;50.20;100041.31;5028051;28;20026;-32
2022/07/22 07:14:48;;;;;;;10.02;6.65;;;;;;;27.56;50.09;100063.38;5027406;28;20425;-32
2022/07/22 07:17:15;;;;;;;10.75;6.63;;;;;;;27.96;49.59;100066.47;5027674;28;20049;-33
2022/07/22 07:19:41;;;;;;;8.90;6.25;;;;;;;28.17;47.49;100071.13;5027606;28;20029;-35
2022/07/22 07:22:06;;;;;;;10.48;6.93;;;;;;;27.91;49.27;100069.44;5027477;28;20037;-30
2022/07/22 07:24:32;;;;;;;12.05;7.15;;;;;;;27.79;48.96;100075.63;5027689;28;20045;-28
2022/07/22 07:26:57;;;;;;;12.48;6.70;;;;;;;27.76;48.66;100048.09;5027770;28;20092;-28
2022/07/22 07:29:22;;;;;;;10.10;6.20;;;;;;;28.16;47.10;100062.09;5027271;28;20032;-33
2022/07/22 07:31:48;;;;;;;11.88;6.30;;;;;;;28.13;48.53;100056.50;5027616;28;20033;-30
2022/07/22 07:34:14;;;;;;;9.95;6.50;;;;;;;28.35;47.74;100069.03;5027480;28;20404;-31
2022/07/22 07:36:40;;;;;;;10.50;6.03;;;;;;;28.52;46.91;100057.09;5027298;28;20037;-28
2022/07/22 07:39:06;;;;;;;8.85;6.13;;;;;;;28.67;46.44;100067.41;5026148;28;20040;-28
2022/07/22 07:41:31;;;;;;;12.30;6.22;;;;;;;28.85;47.43;100049.59;5026814;28;20424;-29
2022/07/22 07:43:57;;;;;;;10.00;5.82;;;;;;;28.90;46.08;100066.97;5027490;28;20036;-28
2022/07/22 07:46:22;;;;;;;9.88;6.45;;;;;;;28.64;47.76;100065.34;5027532;28;20044;-30
2022/07/22 07:48:48;;;;;;;10.98;6.30;;;;;;;28.55;45.95;100056.41;5027282;28;20057;-30
2022/07/22 07:51:13;;;;;;;9.85;6.07;;;;;;;29.05;46.86;100058.03;5026943;28;20509;-32
2022/07/22 07:53:39;;;;;;;8.38;6.20;;;;;;;28.97;46.73;100050.72;5025657;28;20489;-29
2022/07/22 07:56:05;;;;;;;11.35;6.22;;;;;;;29.12;46.43;100060.25;5027342;28;20469;-28
2022/07/22 07:58:30;;;;;;;10.32;6.22;;;;;;;29.24;45.91;100050.06;5027075;28;20392;-29
2022/07/22 08:00:56;;;;;;;12.27;5.95;;;;;;;29.23;47.43;100067.66;5027312;28;20801;-28
2022/07/22 08:03:21;;;;;;;12.30;5.88;;;;;;;28.93;45.59;100047.88;5026869;28;20037;-28
2022/07/22 08:05:47;;;;;;;8.77;5.60;;;;;;;28.91;45.22;100046.59;5027028;28;20045;-31
2022/07/22 08:08:12;;;;;;;9.57;6.20;;;;;;;29.08;48.45;100051.88;5027377;28;20021;-33
2022/07/22 08:10:37;;;;;;;8.13;5.78;;;;;;;29.39;45.38;100050.50;5027096;28;20039;-29
2022/07/22 08:13:04;;;;;;;10.55;6.03;;;;;;;29.59;47.25;100060.53;5026980;28;20029;-28
2022/07/22 08:15:30;;;;;;;18.92;6.70;;;;;;;29.55;46.33;100040.38;5026627;28;20053;-32
2022/07/22 08:17:56;;;;;;;10.82;6.15;;;;;;;29.83;44.83;100053.34;5025658;28;20041;-27
2022/07/22 08:20:23;;;;;;;7.70;5.63;;;;;;;29.83;43.26;100050.63;5025083;28;20412;-30
2022/07/22 08:22:49;;;;;;;11.93;6.07;;;;;;;29.69;42.71;100044.69;5025513;28;20782;-28
2022/07/22 08:25:14;;;;;;;8.23;5.47;;;;;;;29.93;43.63;100052.88;5026787;28;20483;-28
2022/07/22 08:27:40;;;;;;;8.38;5.40;;;;;;;29.84;43.02;100038.47;5026775;28;20026;-31
2022/07/22 08:30:06;;;;;;;11.35;5.63;;;;;;;30.19;43.09;100037.88;5026912;28;20025;-28
2022/07/22 08:32:33;;;;;;;9.57;5.57;;;;;;;30.18;42.50;100050.81;5027079;28;20037;-28
2022/07/22 08:34:59;;;;;;;8.80;5.70;;;;;;;30.15;40.57;100046.00;5025090;28;20029;-28
2022/07/22 08:37:25;;;;;;;10.52;5.53;;;;;;;30.41;41.01;100058.53;5025358;28;20504;-35
2022/07/22 08:39:50;;;;;;;8.82;5.78;;;;;;;30.62;41.61;100050.00;5025339;28;20033;-32
2022/07/22 08:42:15;;;;;;;11.82;5.85;;;;;;;30.54;41.89;100049.03;5026592;28;20559;-31
2022/07/22 08:44:41;;;;;;;7.60;5.10;;;;;;;30.67;39.35;100036.00;5025401;28;20029;-28
2022/07/22 08:47:06;;;;;;;7.15;4.78;;;;;;;30.99;40.17;100047.78;5026592;28;20032;-30
2022/07/22 08:49:32;;;;;;;11.05;6.88;;;;;;;31.16;38.74;100038.34;5026046;28;20102;-28
2022/07/22 08:51:57;;;;;;;15.48;6.25;;;;;;;31.24;39.97;100040.13;5026625;28;20042;-28
2022/07/22 08:54:23;;;;;;;12.65;6.40;;;;;;;31.45;38.57;100052.78;5029360;28;20030;-31
2022/07/22 08:56:50;;;;;;;10.23;4.95;;;;;;;31.11;38.32;100027.59;5030194;28;20029;-30
2022/07/22 08:59:16;;;;;;;8.82;5.18;;;;;;;31.27;39.24;100035.03;5012673;28;20037;-28
2022/07/22 09:02:01;;;;;;;9.13;5.18;;;;;;;31.59;37.98;100050.34;5030106;28;20099;-28
2022/07/22 09:04:26;;;;;;;7.90;5.53;;;;;;;31.55;37.95;100046.72;5030523;28;20042;-31
2022/07/22 09:06:52;;;;;;;9.30;5.32;;;;;;;31.47;37.52;100028.44;5030558;28;20067;-28
2022/07/22 09:09:30;;;;;;;9.07;5.38;;;;;;;31.59;37.98;100047.59;5029923;28;20033;-35
2022/07/22 09:12:06;;;;;;;8.00;5.20;;;;;;;31.61;36.70;100042.50;5030135;28;20057;-31
2022/07/22 09:14:49;;;;;;;8.10;5.13;;;;;;;31.98;36.32;100052.31;5028354;28;20478;-31
2022/07/22 09:17:26;;;;;;;10.88;6.35;;;;;;;32.28;36.00;100048.94;5029527;28;20057;-28
2022/07/22 09:19:52;;;;;;;9.07;5.10;;;;;;;32.36;33.76;100032.13;5028528;28;20031;-29
2022/07/22 09:22:32;;;;;;;10.10;5.18;;;;;;;32.60;36.23;100041.25;5029457;28;20030;-30
2022/07/22 09:24:58;;;;;;;7.20;5.03;;;;;;;32.56;34.39;100049.47;5029415;28;20416;-30
2022/07/22 09:27:25;;;;;;;10.35;5.63;;;;;;;32.67;34.85;100044.13;5027796;28;20044;-28
2022/07/22 09:29:51;;;;;;;7.83;5.30;;;;;;;32.80;36.32;100015.16;5028219;28;20030;-31
2022/07/22 09:32:16;;;;;;;8.52;5.07;;;;;;;33.11;33.69;100046.41;5028342;28;20029;-35
2022/07/22 09:34:42;;;;;;;7.15;4.90;;;;;;;33.31;32.67;100043.56;5029335;28;20503;-30
2022/07/22 09:37:07;;;;;;;9.90;5.28;;;;;;;33.26;32.98;100039.13;5029624;28;20087;-28
2022/07/22 09:39:33;;;;;;;7.35;5.22;;;;;;;33.56;32.78;100044.66;5029183;28;20030;-28
2022/07/22 09:42:00;;;;;;;11.35;5.60;;;;;;;33.51;32.84;100024.84;5028251;28;20614;-30
2022/07/22 09:44:26;;;;;;;;;;;;;;;33.09;32.58;100040.47;5028505;28;20025;-30
2022/07/22 09:46:51;;;;;;;12.27;6.20;;;;;;;32.96;34.30;100039.06;5029585;28;19920;-31
2022/07/22 09:49:32;;;;;;;9.82;5.90;;;;;;;33.47;33.73;100041.41;5027552;28;20041;-34
2022/07/22 09:51:58;;;;;;;7.72;5.20;;;;;;;33.61;32.50;100030.56;5027666;28;20116;-30
2022/07/22 09:54:23;;;;;;;12.63;5.63;;;;;;;33.53;33.76;100028.03;5029305;28;20564;-34
2022/07/22 09:56:48;;;;;;;9.30;5.43;;;;;;;33.51;32.86;100033.13;5029494;28;20621;-28
2022/07/22 09:59:14;;;;;;;9.18;5.85;;;;;;;33.54;32.63;100021.34;5029224;28;20033;-29
2022/07/22 10:01:40;;;;;;;10.02;5.85;;;;;;;33.61;31.57;100013.97;5028880;28;20555;-31
2022/07/22 10:04:06;;;;;;;8.38;5.45;;;;;;;33.99;29.80;100028.59;5027425;28;20151;-29
2022/07/22 10:06:32;;;;;;;8.75;5.30;;;;;;;34.26;30.81;100028.50;5027563;28;20144;-32
2022/07/22 10:08:58;;;;;;;10.60;5.63;;;;;;;34.51;31.02;100027.94;5028030;28;20041;-29
2022/07/22 10:11:24;;;;;;;9.07;5.47;;;;;;;34.38;29.96;100019.91;5027504;28;20128;-30
2022/07/22 10:13:51;;;;;;;8.90;5.45;;;;;;;34.21;30.35;100017.78;5027624;28;20120;-32
2022/07/22 10:16:17;;;;;;;10.32;5.68;;;;;;;34.20;29.95;100024.50;5027239;28;20057;-28
2022/07/22 10:18:46;;;;;;;7.28;5.47;;;;;;;34.59;30.01;100016.56;5027370;28;20040;-29
2022/07/22 10:21:14;;;;;;;9.10;5.47;;;;;;;34.80;29.57;100018.72;5028358;28;20029;-32
2022/07/22 10:24:06;;;;;;;8.20;5.25;;;;;;;34.84;29.38;100023.47;5027168;28;20112;-28
2022/07/22 10:26:51;;;;;;;7.65;5.35;;;;;;;35.08;28.32;100014.53;5022338;28;20555;-32
2022/07/22 10:29:40;;;;;;;8.45;5.88;;;;;;;35.40;29.74;100013.94;5027137;28;20034;-40
2022/07/22 10:32:18;;;;;;;7.45;4.90;;;;;;;35.45;28.82;100010.81;5027412;28;20045;-34
2022/07/22 10:35:06;;;;;;;9.63;5.53;;;;;;;35.52;29.38;99999.72;5028618;28;20501;-29
2022/07/22 10:37:34;;;;;;;10.02;5.43;;;;;;;35.82;28.67;100001.44;5028120;28;20506;-32
2022/07/22 10:40:11;;;;;;;7.15;5.10;;;;;;;35.84;27.65;99999.06;5028119;28;20501;-30
2022/07/22 10:43:08;;;;;;;6.82;5.07;;;;;;;35.44;29.44;100002.88;5026869;28;20037;-31
2022/07/22 10:45:36;;;;;;;9.50;5.47;;;;;;;35.66;29.16;100001.00;5028214;28;20512;-28
2022/07/22 10:48:13;;;;;;;8.23;5.30;;;;;;;35.72;29.52;100005.00;5028552;28;20037;-28
2022/07/22 10:50:41;;;;;;;9.88;5.80;;;;;;;35.78;28.14;99995.09;5027113;28;20033;-31
2022/07/22 10:53:08;;;;;;;9.18;4.78;;;;;;;36.03;28.65;99986.81;5026842;28;20192;-28
2022/07/22 10:55:34;;;;;;;;;;;;;;;36.03;30.55;99983.25;5027138;28;20034;-33
2022/07/22 10:57:59;;;;;;;11.73;6.37;;;;;;;36.57;29.15;99975.75;5028153;28;19917;-36
2022/07/22 11:00:26;;;;;;;8.98;5.53;;;;;;;36.75;26.83;99973.75;5028054;28;20040;-29
2022/07/22 11:02:51;;;;;;;8.13;5.30;;;;;;;36.39;26.96;99971.00;5026386;28;20055;-29
2022/07/22 11:05:30;;;;;;;6.50;4.82;;;;;;;35.92;28.39;99967.38;5026564;28;20732;-29
2022/07/22 11:07:55;;;;;;;8.93;5.43;;;;;;;35.96;28.38;99950.72;5026422;28;20025;-30
2022/07/22 11:10:21;;;;;;;7.60;5.22;;;;;;;36.65;28.77;99974.56;5027788;28;20040;-29
2022/07/22 11:12:49;;;;;;;8.68;5.65;;;;;;;36.59;27.58;99959.47;5027826;28;20489;-29
2022/07/22 11:15:15;;;;;;;9.35;5.50;;;;;;;36.90;27.45;99970.94;5025718;28;20057;-29
2022/07/22 11:17:41;;;;;;;7.90;5.53;;;;;;;36.87;26.94;99968.97;5025969;28;20025;-29
2022/07/22 11:20:10;;;;;;;7.30;5.10;;;;;;;36.56;28.57;99951.94;5028289;28;20064;-32